West Hurley, New York
Current Conditions -  °F | °C
As of 10:18 AM on Sunday 21 Dec 2014 (Local Time) from KPOU Reporting Station
Overcast Overcast  
Wind Chill: 25°   Ceiling: 1300
Heat Index: 31°   Visibility: 10mi
Dew Point: 25°   Wind: 6mph
Humidity: 79%   Direction: 340°NNW
Pressure: 30.34"   Gusts: NA
Location:  42.01°N, 74.11°W
Report Text: KPOU 211518Z 34005KT 10SM BKN013 OVC022 M01/M04 A3034 RMK AO2 T10061039
Loading
Personal Weather Stations






























Interactive Weather Map New forecast layout! Learn more

10-Day Weather Forecast

Advertisements
Track Severe Weather on mobile